sensor_id;sensor_type;location;lat;lon;timestamp;pressure;altitude;pressure_sealevel;temperature;humidity
28626;BME280;18905;42.668;23.364;2024-03-08T00:01:59;95199.94;;;4.61;83.00
28626;BME280;18905;42.668;23.364;2024-03-08T00:04:25;95194.06;;;4.71;82.50
28626;BME280;18905;42.668;23.364;2024-03-08T00:06:50;95187.69;;;4.63;82.70
28626;BME280;18905;42.668;23.364;2024-03-08T00:09:16;95189.25;;;4.74;82.55
28626;BME280;18905;42.668;23.364;2024-03-08T00:11:41;95179.00;;;4.64;82.43
28626;BME280;18905;42.668;23.364;2024-03-08T00:14:06;95193.81;;;4.67;82.20
28626;BME280;18905;42.668;23.364;2024-03-08T00:16:33;95190.78;;;4.75;81.93
28626;BME280;18905;42.668;23.364;2024-03-08T00:18:59;95190.75;;;4.65;81.83
28626;BME280;18905;42.668;23.364;2024-03-08T00:21:24;95188.25;;;4.80;81.72
28626;BME280;18905;42.668;23.364;2024-03-08T00:23:49;95183.13;;;4.70;82.05
28626;BME280;18905;42.668;23.364;2024-03-08T00:26:15;95186.72;;;4.79;83.55
28626;BME280;18905;42.668;23.364;2024-03-08T00:28:40;95189.75;;;4.71;82.75
28626;BME280;18905;42.668;23.364;2024-03-08T00:31:06;95188.97;;;4.71;82.36
28626;BME280;18905;42.668;23.364;2024-03-08T00:33:32;95173.38;;;4.62;82.19
28626;BME280;18905;42.668;23.364;2024-03-08T00:35:57;95178.50;;;4.62;83.32
28626;BME280;18905;42.668;23.364;2024-03-08T00:38:22;95161.31;;;4.38;83.75
28626;BME280;18905;42.668;23.364;2024-03-08T00:40:48;95166.22;;;4.54;83.17
28626;BME280;18905;42.668;23.364;2024-03-08T00:43:13;95179.53;;;4.71;82.54
28626;BME280;18905;42.668;23.364;2024-03-08T00:45:39;95167.81;;;4.70;82.60
28626;BME280;18905;42.668;23.364;2024-03-08T00:48:08;95170.56;;;4.64;82.24
28626;BME280;18905;42.668;23.364;2024-03-08T00:50:33;95171.84;;;4.56;83.32
28626;BME280;18905;42.668;23.364;2024-03-08T00:52:59;95160.59;;;4.52;83.61
28626;BME280;18905;42.668;23.364;2024-03-08T00:55:25;95167.25;;;4.58;82.64
28626;BME280;18905;42.668;23.364;2024-03-08T00:57:50;95151.44;;;4.56;83.66
28626;BME280;18905;42.668;23.364;2024-03-08T01:00:16;95150.59;;;4.46;82.84
28626;BME280;18905;42.668;23.364;2024-03-08T01:02:42;95156.81;;;4.65;82.78
28626;BME280;18905;42.668;23.364;2024-03-08T01:05:08;95152.94;;;4.57;83.10
28626;BME280;18905;42.668;23.364;2024-03-08T01:07:34;95140.41;;;4.41;82.05
28626;BME280;18905;42.668;23.364;2024-03-08T01:10:01;95148.81;;;4.36;82.37
28626;BME280;18905;42.668;23.364;2024-03-08T01:12:27;95141.34;;;4.24;83.35
28626;BME280;18905;42.668;23.364;2024-03-08T01:14:52;95147.47;;;4.23;82.98
28626;BME280;18905;42.668;23.364;2024-03-08T01:17:17;95148.19;;;4.14;83.46
28626;BME280;18905;42.668;23.364;2024-03-08T01:19:43;95142.56;;;4.07;84.10
28626;BME280;18905;42.668;23.364;2024-03-08T01:22:10;95136.97;;;4.15;83.61
28626;BME280;18905;42.668;23.364;2024-03-08T01:24:36;95133.31;;;4.01;84.23
28626;BME280;18905;42.668;23.364;2024-03-08T01:27:02;95132.09;;;4.08;84.12
28626;BME280;18905;42.668;23.364;2024-03-08T01:29:28;95135.91;;;4.06;84.98
28626;BME280;18905;42.668;23.364;2024-03-08T01:31:55;95131.31;;;4.08;85.53
28626;BME280;18905;42.668;23.364;2024-03-08T01:34:21;95126.19;;;4.03;85.07
28626;BME280;18905;42.668;23.364;2024-03-08T01:36:48;95119.06;;;4.05;85.44
28626;BME280;18905;42.668;23.364;2024-03-08T01:39:13;95127.00;;;4.08;84.82
28626;BME280;18905;42.668;23.364;2024-03-08T01:41:39;95113.63;;;3.86;85.00
28626;BME280;18905;42.668;23.364;2024-03-08T01:44:05;95128.44;;;3.94;85.51
28626;BME280;18905;42.668;23.364;2024-03-08T01:46:33;95123.56;;;3.88;85.66
28626;BME280;18905;42.668;23.364;2024-03-08T01:48:59;95134.38;;;4.05;85.00
28626;BME280;18905;42.668;23.364;2024-03-08T01:51:29;95130.84;;;4.11;84.46
28626;BME280;18905;42.668;23.364;2024-03-08T01:53:55;95120.53;;;3.96;84.49
28626;BME280;18905;42.668;23.364;2024-03-08T01:56:23;95124.16;;;4.00;84.41
28626;BME280;18905;42.668;23.364;2024-03-08T01:58:49;95102.94;;;3.89;83.32
28626;BME280;18905;42.668;23.364;2024-03-08T02:01:15;95126.25;;;4.13;82.94
28626;BME280;18905;42.668;23.364;2024-03-08T02:03:40;95124.03;;;4.31;82.29
28626;BME280;18905;42.668;23.364;2024-03-08T02:06:11;95122.03;;;4.44;82.34
28626;BME280;18905;42.668;23.364;2024-03-08T02:08:36;95116.66;;;4.35;81.82
28626;BME280;18905;42.668;23.364;2024-03-08T02:11:02;95129.94;;;4.42;81.06
28626;BME280;18905;42.668;23.364;2024-03-08T02:13:28;95122.53;;;4.46;81.18
28626;BME280;18905;42.668;23.364;2024-03-08T02:15:58;95124.13;;;4.52;80.51
28626;BME280;18905;42.668;23.364;2024-03-08T02:18:28;95126.66;;;4.47;82.00
28626;BME280;18905;42.668;23.364;2024-03-08T02:20:58;95122.34;;;4.57;81.46
28626;BME280;18905;42.668;23.364;2024-03-08T02:23:24;95127.47;;;4.77;80.86
28626;BME280;18905;42.668;23.364;2024-03-08T02:25:54;95127.78;;;4.86;80.46
28626;BME280;18905;42.668;23.364;2024-03-08T02:28:20;95130.34;;;4.96;80.48
28626;BME280;18905;42.668;23.364;2024-03-08T02:30:46;95132.66;;;5.13;79.55
28626;BME280;18905;42.668;23.364;2024-03-08T02:33:13;95135.72;;;5.20;77.53
28626;BME280;18905;42.668;23.364;2024-03-08T02:35:38;95134.69;;;5.05;79.63
28626;BME280;18905;42.668;23.364;2024-03-08T02:38:04;95135.19;;;5.07;78.98
28626;BME280;18905;42.668;23.364;2024-03-08T02:40:30;95142.88;;;4.97;76.56
28626;BME280;18905;42.668;23.364;2024-03-08T02:42:55;95150.00;;;5.00;77.40
28626;BME280;18905;42.668;23.364;2024-03-08T02:45:21;95149.44;;;4.78;77.35
28626;BME280;18905;42.668;23.364;2024-03-08T02:47:46;95147.41;;;4.80;77.57
28626;BME280;18905;42.668;23.364;2024-03-08T02:50:11;95141.56;;;5.00;77.76
28626;BME280;18905;42.668;23.364;2024-03-08T02:52:41;95140.81;;;4.99;76.32
28626;BME280;18905;42.668;23.364;2024-03-08T02:55:07;95143.59;;;4.83;76.43
28626;BME280;18905;42.668;23.364;2024-03-08T02:57:33;95143.81;;;4.61;77.76
28626;BME280;18905;42.668;23.364;2024-03-08T02:59:58;95149.44;;;4.78;77.72
28626;BME280;18905;42.668;23.364;2024-03-08T03:02:25;95145.31;;;4.52;78.22
28626;BME280;18905;42.668;23.364;2024-03-08T03:04:52;95145.31;;;4.62;77.33
28626;BME280;18905;42.668;23.364;2024-03-08T03:07:17;95140.44;;;4.56;74.82
28626;BME280;18905;42.668;23.364;2024-03-08T03:09:43;95146.84;;;4.68;73.23
28626;BME280;18905;42.668;23.364;2024-03-08T03:12:08;95150.44;;;4.67;71.73
28626;BME280;18905;42.668;23.364;2024-03-08T03:14:35;95153.53;;;4.74;72.12
28626;BME280;18905;42.668;23.364;2024-03-08T03:17:04;95159.91;;;4.72;70.95
28626;BME280;18905;42.668;23.364;2024-03-08T03:19:30;95156.06;;;4.69;71.36
28626;BME280;18905;42.668;23.364;2024-03-08T03:21:55;95157.06;;;4.63;71.34
28626;BME280;18905;42.668;23.364;2024-03-08T03:24:20;95155.00;;;4.60;72.25
28626;BME280;18905;42.668;23.364;2024-03-08T03:26:46;95162.94;;;4.69;72.75
28626;BME280;18905;42.668;23.364;2024-03-08T03:29:14;95148.59;;;4.53;72.14
28626;BME280;18905;42.668;23.364;2024-03-08T03:31:40;95161.13;;;4.64;71.90
28626;BME280;18905;42.668;23.364;2024-03-08T03:34:06;95172.09;;;4.60;71.98
28626;BME280;18905;42.668;23.364;2024-03-08T03:36:34;95160.63;;;4.62;73.24
28626;BME280;18905;42.668;23.364;2024-03-08T03:39:01;95167.81;;;4.70;72.44
28626;BME280;18905;42.668;23.364;2024-03-08T03:41:36;95172.88;;;4.60;72.98
28626;BME280;18905;42.668;23.364;2024-03-08T03:44:02;95172.69;;;4.77;71.96
28626;BME280;18905;42.668;23.364;2024-03-08T03:46:27;95174.41;;;4.61;71.61
28626;BME280;18905;42.668;23.364;2024-03-08T03:48:54;95174.97;;;4.78;71.63
28626;BME280;18905;42.668;23.364;2024-03-08T03:51:20;95184.16;;;4.84;71.99
28626;BME280;18905;42.668;23.364;2024-03-08T03:53:46;95182.59;;;4.73;72.48
28626;BME280;18905;42.668;23.364;2024-03-08T03:56:12;95181.91;;;4.88;70.95
28626;BME280;18905;42.668;23.364;2024-03-08T03:58:37;95184.75;;;5.01;70.35
28626;BME280;18905;42.668;23.364;2024-03-08T04:01:04;95186.28;;;5.07;70.31
28626;BME280;18905;42.668;23.364;2024-03-08T04:03:30;95188.53;;;4.89;70.69
28626;BME280;18905;42.668;23.364;2024-03-08T04:05:55;95188.78;;;4.87;71.60
28626;BME280;18905;42.668;23.364;2024-03-08T04:08:20;95192.09;;;4.83;71.42
28626;BME280;18905;42.668;23.364;2024-03-08T04:10:46;95198.97;;;4.82;70.72
28626;BME280;18905;42.668;23.364;2024-03-08T04:13:11;95194.91;;;4.91;70.54
28626;BME280;18905;42.668;23.364;2024-03-08T04:15:37;95200.25;;;4.85;70.70
28626;BME280;18905;42.668;23.364;2024-03-08T04:18:03;95196.13;;;4.69;72.01
28626;BME280;18905;42.668;23.364;2024-03-08T04:20:29;95198.44;;;4.70;71.20
28626;BME280;18905;42.668;23.364;2024-03-08T04:22:54;95205.06;;;4.71;71.45
28626;BME280;18905;42.668;23.364;2024-03-08T04:25:20;95209.44;;;4.81;71.26
28626;BME280;18905;42.668;23.364;2024-03-08T04:27:46;95198.44;;;4.70;70.84
28626;BME280;18905;42.668;23.364;2024-03-08T04:30:12;95213.38;;;4.47;72.10
28626;BME280;18905;42.668;23.364;2024-03-08T04:32:37;95213.66;;;4.55;71.48
28626;BME280;18905;42.668;23.364;2024-03-08T04:35:03;95220.09;;;4.63;71.40
28626;BME280;18905;42.668;23.364;2024-03-08T04:37:29;95223.31;;;4.43;72.50
28626;BME280;18905;42.668;23.364;2024-03-08T04:39:55;95225.28;;;4.31;73.70
28626;BME280;18905;42.668;23.364;2024-03-08T04:42:20;95223.25;;;4.33;73.60
28626;BME280;18905;42.668;23.364;2024-03-08T04:44:46;95218.78;;;4.55;72.04
28626;BME280;18905;42.668;23.364;2024-03-08T04:47:11;95227.72;;;4.58;71.49
28626;BME280;18905;42.668;23.364;2024-03-08T04:49:37;95223.97;;;4.70;71.69
28626;BME280;18905;42.668;23.364;2024-03-08T04:52:03;95222.91;;;4.66;71.40
28626;BME280;18905;42.668;23.364;2024-03-08T04:54:29;95232.28;;;4.51;72.64
28626;BME280;18905;42.668;23.364;2024-03-08T04:56:54;95230.22;;;4.43;72.35
28626;BME280;18905;42.668;23.364;2024-03-08T04:59:20;95234.00;;;4.40;72.90
28626;BME280;18905;42.668;23.364;2024-03-08T05:01:45;95229.41;;;4.37;75.24
28626;BME280;18905;42.668;23.364;2024-03-08T05:04:10;95231.94;;;4.94;84.95
28626;BME280;18905;42.668;23.364;2024-03-08T05:06:36;95237.44;;;5.48;76.29
28626;BME280;18905;42.668;23.364;2024-03-08T05:09:02;95234.63;;;5.74;71.88
28626;BME280;18905;42.668;23.364;2024-03-08T05:11:45;95249.75;;;6.01;72.30
28626;BME280;18905;42.668;23.364;2024-03-08T05:14:11;95253.03;;;6.32;71.31
28626;BME280;18905;42.668;23.364;2024-03-08T05:16:46;95253.22;;;6.66;69.74
28626;BME280;18905;42.668;23.364;2024-03-08T05:19:15;95251.56;;;6.95;65.94
28626;BME280;18905;42.668;23.364;2024-03-08T05:21:44;95254.34;;;6.19;67.06
28626;BME280;18905;42.668;23.364;2024-03-08T05:24:09;95254.81;;;5.66;69.38
28626;BME280;18905;42.668;23.364;2024-03-08T05:26:41;95265.94;;;5.09;70.96
28626;BME280;18905;42.668;23.364;2024-03-08T05:29:10;95260.41;;;4.61;73.58
28626;BME280;18905;42.668;23.364;2024-03-08T05:31:49;95275.47;;;4.62;74.63
28626;BME280;18905;42.668;23.364;2024-03-08T05:34:16;95271.38;;;4.66;74.51
28626;BME280;18905;42.668;23.364;2024-03-08T05:36:42;95274.19;;;4.23;76.28
28626;BME280;18905;42.668;23.364;2024-03-08T05:39:10;95281.41;;;4.31;76.66
28626;BME280;18905;42.668;23.364;2024-03-08T05:41:37;95280.72;;;4.46;76.37
28626;BME280;18905;42.668;23.364;2024-03-08T05:44:03;95271.75;;;4.38;76.86
28626;BME280;18905;42.668;23.364;2024-03-08T05:46:28;95285.50;;;4.37;77.21
28626;BME280;18905;42.668;23.364;2024-03-08T05:48:53;95289.56;;;4.33;78.06
28626;BME280;18905;42.668;23.364;2024-03-08T05:51:19;95292.19;;;4.06;79.46
28626;BME280;18905;42.668;23.364;2024-03-08T05:53:46;95298.34;;;4.10;78.34
28626;BME280;18905;42.668;23.364;2024-03-08T05:56:12;95297.16;;;3.91;79.57
28626;BME280;18905;42.668;23.364;2024-03-08T05:58:37;95290.03;;;3.61;78.73
28626;BME280;18905;42.668;23.364;2024-03-08T06:01:02;95310.06;;;3.53;79.08
28626;BME280;18905;42.668;23.364;2024-03-08T06:03:33;95317.44;;;3.49;80.08
28626;BME280;18905;42.668;23.364;2024-03-08T06:05:58;95310.03;;;3.48;80.44
28626;BME280;18905;42.668;23.364;2024-03-08T06:08:24;95315.88;;;3.48;80.34
28626;BME280;18905;42.668;23.364;2024-03-08T06:10:55;95315.34;;;3.46;80.40
28626;BME280;18905;42.668;23.364;2024-03-08T06:13:20;95317.38;;;3.44;80.34
28626;BME280;18905;42.668;23.364;2024-03-08T06:15:45;95330.16;;;3.49;79.84
28626;BME280;18905;42.668;23.364;2024-03-08T06:18:11;95325.41;;;3.58;80.11
28626;BME280;18905;42.668;23.364;2024-03-08T06:20:37;95328.53;;;3.65;79.53
28626;BME280;18905;42.668;23.364;2024-03-08T06:23:02;95330.84;;;3.67;79.06
28626;BME280;18905;42.668;23.364;2024-03-08T06:25:27;95341.03;;;3.67;79.09
28626;BME280;18905;42.668;23.364;2024-03-08T06:27:53;95322.91;;;3.63;78.83
28626;BME280;18905;42.668;23.364;2024-03-08T06:30:18;95334.50;;;3.49;77.44
28626;BME280;18905;42.668;23.364;2024-03-08T06:32:45;95327.47;;;3.34;79.01
28626;BME280;18905;42.668;23.364;2024-03-08T06:35:10;95331.41;;;3.47;79.67
28626;BME280;18905;42.668;23.364;2024-03-08T06:37:36;95334.81;;;3.57;78.26
28626;BME280;18905;42.668;23.364;2024-03-08T06:40:02;95339.19;;;3.62;77.17
28626;BME280;18905;42.668;23.364;2024-03-08T06:42:33;95336.50;;;3.69;75.41
28626;BME280;18905;42.668;23.364;2024-03-08T06:45:00;95329.31;;;3.66;75.87
28626;BME280;18905;42.668;23.364;2024-03-08T06:47:30;95336.63;;;3.84;75.49
28626;BME280;18905;42.668;23.364;2024-03-08T06:49:56;95344.38;;;3.99;76.11
28626;BME280;18905;42.668;23.364;2024-03-08T06:52:21;95343.16;;;4.01;74.18
28626;BME280;18905;42.668;23.364;2024-03-08T06:54:47;95340.31;;;3.98;72.23
28626;BME280;18905;42.668;23.364;2024-03-08T06:57:13;95342.81;;;3.93;71.99
28626;BME280;18905;42.668;23.364;2024-03-08T06:59:39;95339.03;;;4.00;73.46
28626;BME280;18905;42.668;23.364;2024-03-08T07:02:04;95347.47;;;4.01;72.44
28626;BME280;18905;42.668;23.364;2024-03-08T07:04:30;95355.06;;;3.96;73.85
28626;BME280;18905;42.668;23.364;2024-03-08T07:06:56;95352.38;;;4.07;72.32
28626;BME280;18905;42.668;23.364;2024-03-08T07:09:23;95359.28;;;4.12;72.74
28626;BME280;18905;42.668;23.364;2024-03-08T07:11:49;95348.50;;;4.05;72.85
28626;BME280;18905;42.668;23.364;2024-03-08T07:14:23;95352.03;;;3.99;73.01
28626;BME280;18905;42.668;23.364;2024-03-08T07:16:49;95357.38;;;3.97;73.47
28626;BME280;18905;42.668;23.364;2024-03-08T07:19:14;95344.34;;;3.94;71.96
28626;BME280;18905;42.668;23.364;2024-03-08T07:21:40;95356.72;;;4.07;72.43
28626;BME280;18905;42.668;23.364;2024-03-08T07:24:07;95337.19;;;3.91;72.14
28626;BME280;18905;42.668;23.364;2024-03-08T07:26:49;95357.25;;;4.14;71.60
28626;BME280;18905;42.668;23.364;2024-03-08T07:29:17;95348.16;;;4.23;70.73
28626;BME280;18905;42.668;23.364;2024-03-08T07:31:42;95363.84;;;4.42;70.90
28626;BME280;18905;42.668;23.364;2024-03-08T07:34:21;95342.25;;;4.17;71.93
28626;BME280;18905;42.668;23.364;2024-03-08T07:36:46;95362.78;;;4.32;73.29
28626;BME280;18905;42.668;23.364;2024-03-08T07:39:11;95355.69;;;4.40;72.25
28626;BME280;18905;42.668;23.364;2024-03-08T07:41:40;95365.00;;;4.56;70.78
28626;BME280;18905;42.668;23.364;2024-03-08T07:44:08;95349.06;;;4.39;71.25
28626;BME280;18905;42.668;23.364;2024-03-08T07:46:34;95358.22;;;4.40;72.24
28626;BME280;18905;42.668;23.364;2024-03-08T07:49:00;95365.19;;;4.49;72.57
28626;BME280;18905;42.668;23.364;2024-03-08T07:51:25;95364.53;;;4.32;73.39
28626;BME280;18905;42.668;23.364;2024-03-08T07:53:51;95376.88;;;4.40;74.01
28626;BME280;18905;42.668;23.364;2024-03-08T07:56:16;95373.78;;;4.38;73.11
28626;BME280;18905;42.668;23.364;2024-03-08T07:58:46;95364.84;;;4.35;73.33
28626;BME280;18905;42.668;23.364;2024-03-08T08:01:18;95363.59;;;4.75;72.11
28626;BME280;18905;42.668;23.364;2024-03-08T08:03:43;95367.78;;;4.96;73.09
28626;BME280;18905;42.668;23.364;2024-03-08T08:06:09;95367.09;;;5.11;70.40
28626;BME280;18905;42.668;23.364;2024-03-08T08:08:35;95352.97;;;4.93;69.24
28626;BME280;18905;42.668;23.364;2024-03-08T08:11:01;95365.00;;;5.02;70.63
28626;BME280;18905;42.668;23.364;2024-03-08T08:13:27;95366.50;;;4.93;70.36
28626;BME280;18905;42.668;23.364;2024-03-08T08:15:57;95366.44;;;4.83;70.66
28626;BME280;18905;42.668;23.364;2024-03-08T08:18:22;95369.53;;;4.85;69.67
28626;BME280;18905;42.668;23.364;2024-03-08T08:20:50;95368.91;;;4.73;70.43
28626;BME280;18905;42.668;23.364;2024-03-08T08:23:15;95333.44;;;4.72;68.90
28626;BME280;18905;42.668;23.364;2024-03-08T08:25:41;95357.84;;;4.99;69.51
28626;BME280;18905;42.668;23.364;2024-03-08T08:28:06;95358.22;;;5.23;66.89
28626;BME280;18905;42.668;23.364;2024-03-08T08:30:31;95364.69;;;5.46;67.96
28626;BME280;18905;42.668;23.364;2024-03-08T08:32:58;95364.19;;;5.59;66.66
28626;BME280;18905;42.668;23.364;2024-03-08T08:35:26;95367.78;;;5.53;66.04
28626;BME280;18905;42.668;23.364;2024-03-08T08:37:51;95370.38;;;5.68;65.48
28626;BME280;18905;42.668;23.364;2024-03-08T08:40:16;95356.56;;;5.64;65.33
28626;BME280;18905;42.668;23.364;2024-03-08T08:42:43;95366.84;;;5.84;64.66
28626;BME280;18905;42.668;23.364;2024-03-08T08:45:08;95358.44;;;5.89;64.74
28626;BME280;18905;42.668;23.364;2024-03-08T08:47:35;95364.06;;;5.86;63.30
28626;BME280;18905;42.668;23.364;2024-03-08T08:50:01;95358.22;;;6.25;63.69
28626;BME280;18905;42.668;23.364;2024-03-08T08:52:27;95349.72;;;6.65;62.71
28626;BME280;18905;42.668;23.364;2024-03-08T08:54:54;95355.25;;;7.17;61.71
28626;BME280;18905;42.668;23.364;2024-03-08T08:57:19;95358.56;;;7.28;59.23
28626;BME280;18905;42.668;23.364;2024-03-08T08:59:45;95361.00;;;6.64;60.38
28626;BME280;18905;42.668;23.364;2024-03-08T09:02:11;95339.28;;;6.41;61.05
28626;BME280;18905;42.668;23.364;2024-03-08T09:04:36;95339.50;;;6.80;60.17
28626;BME280;18905;42.668;23.364;2024-03-08T09:07:02;95339.88;;;7.22;59.69
28626;BME280;18905;42.668;23.364;2024-03-08T09:09:27;95338.44;;;7.55;58.08
28626;BME280;18905;42.668;23.364;2024-03-08T09:11:52;95349.09;;;7.77;56.63
28626;BME280;18905;42.668;23.364;2024-03-08T09:14:19;95334.59;;;7.96;54.82
28626;BME280;18905;42.668;23.364;2024-03-08T09:16:45;95345.19;;;8.24;52.79
28626;BME280;18905;42.668;23.364;2024-03-08T09:19:12;95328.69;;;8.35;53.35
28626;BME280;18905;42.668;23.364;2024-03-08T09:21:38;95350.13;;;9.06;52.20
28626;BME280;18905;42.668;23.364;2024-03-08T09:24:05;95330.56;;;9.71;50.51
28626;BME280;18905;42.668;23.364;2024-03-08T09:26:34;95334.41;;;10.75;49.50
28626;BME280;18905;42.668;23.364;2024-03-08T09:29:00;95349.25;;;10.51;49.33
28626;BME280;18905;42.668;23.364;2024-03-08T09:31:25;95346.50;;;9.92;50.50
28626;BME280;18905;42.668;23.364;2024-03-08T09:33:53;95319.25;;;8.59;53.93
28626;BME280;18905;42.668;23.364;2024-03-08T09:36:18;95346.88;;;8.72;54.58
28626;BME280;18905;42.668;23.364;2024-03-08T09:38:44;95343.78;;;8.99;51.86
28626;BME280;18905;42.668;23.364;2024-03-08T09:41:09;95338.22;;;9.15;51.83
28626;BME280;18905;42.668;23.364;2024-03-08T09:43:38;95344.16;;;8.58;53.52
28626;BME280;18905;42.668;23.364;2024-03-08T09:46:04;95334.16;;;8.23;55.06
28626;BME280;18905;42.668;23.364;2024-03-08T09:48:31;95343.28;;;8.01;56.27
28626;BME280;18905;42.668;23.364;2024-03-08T09:50:57;95329.06;;;7.84;55.84
28626;BME280;18905;42.668;23.364;2024-03-08T09:53:23;95343.28;;;8.01;55.34
28626;BME280;18905;42.668;23.364;2024-03-08T09:55:48;95331.69;;;8.47;55.22
28626;BME280;18905;42.668;23.364;2024-03-08T09:58:15;95339.72;;;9.16;52.51
28626;BME280;18905;42.668;23.364;2024-03-08T10:00:47;95336.19;;;8.60;53.31
28626;BME280;18905;42.668;23.364;2024-03-08T10:03:13;95332.41;;;8.52;52.21
28626;BME280;18905;42.668;23.364;2024-03-08T10:05:40;95348.88;;;8.08;54.13
28626;BME280;18905;42.668;23.364;2024-03-08T10:08:06;95339.94;;;8.05;55.51
28626;BME280;18905;42.668;23.364;2024-03-08T10:10:34;95342.41;;;7.81;55.02
28626;BME280;18905;42.668;23.364;2024-03-08T10:13:00;95342.16;;;8.17;54.75
28626;BME280;18905;42.668;23.364;2024-03-08T10:15:29;95337.56;;;8.14;55.24
28626;BME280;18905;42.668;23.364;2024-03-08T10:17:55;95344.66;;;8.60;53.81
28626;BME280;18905;42.668;23.364;2024-03-08T10:20:21;95345.00;;;9.06;52.51
28626;BME280;18905;42.668;23.364;2024-03-08T10:22:49;95338.84;;;8.79;51.80
28626;BME280;18905;42.668;23.364;2024-03-08T10:25:14;95336.69;;;8.33;53.53
28626;BME280;18905;42.668;23.364;2024-03-08T10:27:40;95342.19;;;8.79;53.57
28626;BME280;18905;42.668;23.364;2024-03-08T10:30:14;95338.75;;;9.12;51.41
28626;BME280;18905;42.668;23.364;2024-03-08T10:32:40;95336.41;;;9.58;51.61
28626;BME280;18905;42.668;23.364;2024-03-08T10:35:07;95331.75;;;10.16;50.69
28626;BME280;18905;42.668;23.364;2024-03-08T10:37:48;95333.84;;;10.14;49.33
28626;BME280;18905;42.668;23.364;2024-03-08T10:40:18;95327.28;;;10.03;49.65
28626;BME280;18905;42.668;23.364;2024-03-08T10:43:00;95316.53;;;9.45;50.51
28626;BME280;18905;42.668;23.364;2024-03-08T10:45:38;95309.88;;;8.97;51.15
28626;BME280;18905;42.668;23.364;2024-03-08T10:48:26;95316.72;;;8.54;51.88
28626;BME280;18905;42.668;23.364;2024-03-08T10:50:53;95323.38;;;7.87;54.11
28626;BME280;18905;42.668;23.364;2024-03-08T10:53:19;95322.38;;;8.22;54.00
28626;BME280;18905;42.668;23.364;2024-03-08T10:55:47;95329.25;;;8.32;56.12
28626;BME280;18905;42.668;23.364;2024-03-08T10:58:15;95309.06;;;8.49;52.77
28626;BME280;18905;42.668;23.364;2024-03-08T11:00:41;95317.19;;;8.61;52.94
28626;BME280;18905;42.668;23.364;2024-03-08T11:03:07;95313.56;;;8.00;54.66
28626;BME280;18905;42.668;23.364;2024-03-08T11:05:37;95306.22;;;8.17;54.52
28626;BME280;18905;42.668;23.364;2024-03-08T11:10:50;95294.13;;;8.22;54.36
28626;BME280;18905;42.668;23.364;2024-03-08T11:13:35;95300.53;;;8.30;53.75
28626;BME280;18905;42.668;23.364;2024-03-08T11:16:09;95299.47;;;8.59;53.36
28626;BME280;18905;42.668;23.364;2024-03-08T11:18:35;95296.38;;;8.34;52.67
28626;BME280;18905;42.668;23.364;2024-03-08T11:21:03;95278.13;;;7.63;54.70
28626;BME280;18905;42.668;23.364;2024-03-08T11:23:32;95297.38;;;7.60;55.57
28626;BME280;18905;42.668;23.364;2024-03-08T11:25:59;95292.47;;;7.69;55.17
28626;BME280;18905;42.668;23.364;2024-03-08T11:28:24;95288.16;;;7.98;54.23
28626;BME280;18905;42.668;23.364;2024-03-08T11:33:26;95284.56;;;8.33;53.43
28626;BME280;18905;42.668;23.364;2024-03-08T11:35:52;95288.69;;;8.57;52.68
28626;BME280;18905;42.668;23.364;2024-03-08T11:38:28;95275.75;;;8.91;51.90
28626;BME280;18905;42.668;23.364;2024-03-08T11:40:56;95274.97;;;9.14;50.43
28626;BME280;18905;42.668;23.364;2024-03-08T11:43:22;95271.31;;;9.58;48.24
28626;BME280;18905;42.668;23.364;2024-03-08T11:45:47;95281.66;;;9.15;49.96
28626;BME280;18905;42.668;23.364;2024-03-08T11:48:13;95271.19;;;8.88;50.91
28626;BME280;18905;42.668;23.364;2024-03-08T11:50:39;95261.97;;;8.82;50.81
28626;BME280;18905;42.668;23.364;2024-03-08T11:53:05;95270.34;;;8.69;50.70
28626;BME280;18905;42.668;23.364;2024-03-08T11:55:31;95283.06;;;8.55;50.40
28626;BME280;18905;42.668;23.364;2024-03-08T11:58:02;95271.72;;;9.09;48.89
28626;BME280;18905;42.668;23.364;2024-03-08T12:00:28;95279.78;;;9.95;48.29
28626;BME280;18905;42.668;23.364;2024-03-08T12:03:04;95282.63;;;10.58;45.92
28626;BME280;18905;42.668;23.364;2024-03-08T12:05:30;95276.34;;;10.64;45.67
28626;BME280;18905;42.668;23.364;2024-03-08T12:08:00;95272.91;;;9.91;47.52
28626;BME280;18905;42.668;23.364;2024-03-08T12:10:26;95265.53;;;9.84;48.11
28626;BME280;18905;42.668;23.364;2024-03-08T12:12:55;95273.06;;;9.81;48.08
28626;BME280;18905;42.668;23.364;2024-03-08T12:15:24;95251.63;;;9.29;48.45
28626;BME280;18905;42.668;23.364;2024-03-08T12:17:50;95278.78;;;8.75;49.92
28626;BME280;18905;42.668;23.364;2024-03-08T12:20:17;95273.19;;;8.68;50.78
28626;BME280;18905;42.668;23.364;2024-03-08T12:22:43;95258.97;;;8.23;52.48
28626;BME280;18905;42.668;23.364;2024-03-08T12:25:11;95246.91;;;7.89;52.23
28626;BME280;18905;42.668;23.364;2024-03-08T12:27:41;95253.38;;;8.16;50.81
28626;BME280;18905;42.668;23.364;2024-03-08T12:32:52;95256.25;;;8.66;50.56
28626;BME280;18905;42.668;23.364;2024-03-08T12:35:20;95270.97;;;8.61;49.66
28626;BME280;18905;42.668;23.364;2024-03-08T12:37:56;95250.97;;;8.82;49.83
28626;BME280;18905;42.668;23.364;2024-03-08T12:40:30;95248.81;;;8.65;49.80
28626;BME280;18905;42.668;23.364;2024-03-08T12:42:57;95254.34;;;8.77;49.45
28626;BME280;18905;42.668;23.364;2024-03-08T12:45:23;95250.00;;;8.96;49.81
28626;BME280;18905;42.668;23.364;2024-03-08T12:47:52;95257.03;;;9.09;49.73
28626;BME280;18905;42.668;23.364;2024-03-08T12:50:19;95245.59;;;8.78;50.00
28626;BME280;18905;42.668;23.364;2024-03-08T12:52:44;95248.78;;;8.70;50.87
28626;BME280;18905;42.668;23.364;2024-03-08T12:55:10;95225.16;;;8.68;50.28
28626;BME280;18905;42.668;23.364;2024-03-08T12:57:36;95233.41;;;8.65;50.51
28626;BME280;18905;42.668;23.364;2024-03-08T13:00:03;95249.56;;;8.89;49.36
28626;BME280;18905;42.668;23.364;2024-03-08T13:02:30;95224.50;;;8.81;49.50
28626;BME280;18905;42.668;23.364;2024-03-08T13:04:56;95226.13;;;8.72;49.37
28626;BME280;18905;42.668;23.364;2024-03-08T13:07:25;95232.75;;;8.78;50.16